Time;durP1;ratioP1;P1;durP2;ratioP2;P2;SDS_P1;SDS_P2;PMS_P1;PMS_P2;Temp;Humidity;BMP_temperature;BMP_pressure;BME280_temperature;BME280_humidity;BME280_pressure;Samples;Min_cycle;Max_cycle;Signal;HPM_P1;HPM_P2
2021/06/23 00:00:59;;;;;;;9.30;5.85;;;17.80;99.90;;;;;;5034797;28;20037;-67
2021/06/23 00:03:25;;;;;;;9.73;5.60;;;17.70;99.90;;;;;;5035116;28;20052;-67
2021/06/23 00:05:51;;;;;;;14.23;6.88;;;17.70;99.90;;;;;;5035009;28;20116;-67
2021/06/23 00:08:17;;;;;;;15.30;6.10;;;17.70;99.90;;;;;;5033737;28;20455;-67
2021/06/23 00:10:43;;;;;;;10.93;6.05;;;17.80;99.90;;;;;;5035129;28;20120;-67
2021/06/23 00:13:09;;;;;;;10.82;5.97;;;17.80;99.90;;;;;;5033555;28;20038;-67
2021/06/23 00:15:37;;;;;;;9.43;6.35;;;17.60;99.90;;;;;;5033927;28;20436;-67
2021/06/23 00:18:04;;;;;;;11.43;6.43;;;17.60;99.90;;;;;;5033415;28;20029;-68
2021/06/23 00:20:30;;;;;;;9.25;6.43;;;17.60;99.90;;;;;;5034750;28;20061;-68
2021/06/23 00:22:56;;;;;;;10.70;6.53;;;17.50;99.90;;;;;;5034766;28;20037;-67
2021/06/23 00:25:23;;;;;;;12.18;6.10;;;17.50;99.90;;;;;;5034519;28;20038;-68
2021/06/23 00:27:49;;;;;;;8.25;5.90;;;17.50;99.90;;;;;;5033820;28;20044;-67
2021/06/23 00:30:16;;;;;;;8.95;6.15;;;17.60;99.90;;;;;;5034656;28;20030;-67
2021/06/23 00:32:44;;;;;;;10.93;6.25;;;17.60;99.90;;;;;;5034513;28;20029;-68
2021/06/23 00:35:11;;;;;;;13.85;6.47;;;17.60;99.90;;;;;;5033092;28;20375;-68
2021/06/23 00:37:37;;;;;;;8.48;6.18;;;17.50;99.90;;;;;;5034555;28;20115;-68
2021/06/23 00:40:06;;;;;;;9.32;6.60;;;17.40;99.90;;;;;;5034607;28;20447;-67
2021/06/23 00:42:33;;;;;;;8.63;6.70;;;17.30;99.90;;;;;;5034270;28;20120;-67
2021/06/23 00:45:04;;;;;;;10.88;6.78;;;17.40;99.90;;;;;;5033457;28;20109;-67
2021/06/23 00:47:30;;;;;;;;;;;17.40;99.90;;;;;;5033687;28;20113;-67
2021/06/23 00:49:56;;;;;;;10.23;6.25;;;17.40;99.90;;;;;;5034232;28;20344;-68
2021/06/23 00:52:21;;;;;;;8.50;6.25;;;17.50;99.90;;;;;;5033071;28;20041;-66
2021/06/23 00:54:50;;;;;;;14.27;6.40;;;17.40;99.90;;;;;;5033127;28;20409;-68
2021/06/23 00:57:18;;;;;;;11.80;6.55;;;17.50;99.90;;;;;;5033929;28;20540;-67
2021/06/23 00:59:48;;;;;;;10.82;6.18;;;17.50;99.90;;;;;;5033080;28;20022;-67
2021/06/23 01:02:16;;;;;;;14.95;7.38;;;17.40;99.90;;;;;;5032579;28;20037;-67
2021/06/23 01:04:42;;;;;;;10.82;6.10;;;17.50;99.90;;;;;;5032610;28;20482;-67
2021/06/23 01:07:08;;;;;;;10.45;6.15;;;17.50;99.90;;;;;;5033951;28;20033;-68
2021/06/23 01:09:34;;;;;;;13.77;8.68;;;17.50;99.90;;;;;;5032941;28;20034;-68
2021/06/23 01:12:23;;;;;;;11.40;6.85;;;17.60;99.90;;;;;;5033800;28;20065;-68
2021/06/23 01:14:54;;;;;;;14.25;6.03;;;17.60;99.90;;;;;;5014582;28;20045;-67
2021/06/23 01:17:21;;;;;;;11.30;6.68;;;17.60;99.90;;;;;;5033615;28;20061;-67
2021/06/23 01:19:49;;;;;;;12.25;6.10;;;17.70;99.90;;;;;;5033959;28;20029;-68
2021/06/23 01:22:18;;;;;;;9.32;5.13;;;17.70;99.90;;;;;;5033423;28;20061;-68
2021/06/23 01:24:45;;;;;;;12.88;6.00;;;17.70;99.90;;;;;;5032700;28;20029;-67
2021/06/23 01:27:11;;;;;;;9.20;4.93;;;17.80;99.90;;;;;;5032330;28;20117;-68
2021/06/23 01:29:38;;;;;;;11.77;6.18;;;17.80;99.90;;;;;;5033786;28;20626;-67
2021/06/23 01:32:09;;;;;;;13.93;5.82;;;17.60;99.90;;;;;;5033243;28;20097;-68
2021/06/23 01:34:36;;;;;;;16.90;6.63;;;17.60;99.90;;;;;;5032482;28;20087;-68
2021/06/23 01:37:02;;;;;;;15.07;6.15;;;17.60;99.90;;;;;;5033380;28;20543;-68
2021/06/23 01:39:28;;;;;;;11.25;5.97;;;17.50;99.90;;;;;;5033448;28;20040;-68
2021/06/23 01:41:54;;;;;;;15.20;6.95;;;17.60;99.90;;;;;;5033080;28;20034;-67
2021/06/23 01:44:20;;;;;;;11.90;6.13;;;17.60;99.90;;;;;;5033056;28;20029;-68
2021/06/23 01:46:46;;;;;;;8.52;5.88;;;17.50;99.90;;;;;;5031857;28;20033;-68
2021/06/23 01:49:12;;;;;;;13.38;6.45;;;17.40;99.90;;;;;;5031747;28;20124;-68
2021/06/23 01:51:38;;;;;;;10.15;6.95;;;17.30;99.90;;;;;;5033046;28;20059;-68
2021/06/23 01:54:03;;;;;;;13.52;6.35;;;17.40;99.90;;;;;;5033381;28;20038;-68
2021/06/23 01:56:31;;;;;;;11.65;6.15;;;17.40;99.90;;;;;;5032955;28;20038;-68
2021/06/23 01:58:58;;;;;;;11.15;6.30;;;17.50;99.90;;;;;;5033143;28;20033;-67
2021/06/23 02:01:46;;;;;;;10.93;6.10;;;17.50;99.90;;;;;;5031669;28;20025;-67
2021/06/23 02:04:50;;;;;;;9.23;5.97;;;17.50;99.90;;;;;;5032630;28;20111;-67
2021/06/23 02:07:39;;;;;;;13.45;6.22;;;17.60;99.90;;;;;;5032918;28;20033;-67
2021/06/23 02:10:14;;;;;;;10.45;6.85;;;17.60;99.90;;;;;;5013348;28;20482;-67
2021/06/23 02:13:28;;;;;;;11.05;5.97;;;17.60;99.90;;;;;;5032626;28;20037;-67
2021/06/23 02:15:57;;;;;;;15.27;6.90;;;17.60;99.90;;;;;;5002693;28;20041;-68
2021/06/23 02:18:27;;;;;;;12.82;6.40;;;17.60;99.90;;;;;;5032482;28;20034;-67
2021/06/23 02:20:57;;;;;;;17.55;6.65;;;17.50;99.90;;;;;;5031586;28;20033;-67
2021/06/23 02:23:23;;;;;;;14.57;7.00;;;17.40;99.90;;;;;;5032729;28;20061;-67
2021/06/23 02:25:50;;;;;;;10.10;6.10;;;17.40;99.90;;;;;;5031272;28;20029;-68
2021/06/23 02:28:18;;;;;;;8.77;5.95;;;17.40;99.90;;;;;;5032143;28;20091;-67
2021/06/23 02:30:44;;;;;;;11.68;6.45;;;17.40;99.90;;;;;;5031270;28;20029;-67
2021/06/23 02:33:11;;;;;;;10.45;6.55;;;17.40;99.90;;;;;;5030913;28;20367;-67
2021/06/23 02:35:39;;;;;;;9.90;6.47;;;17.40;99.90;;;;;;5031507;28;20102;-67
2021/06/23 02:38:06;;;;;;;10.57;5.97;;;17.40;99.90;;;;;;5031165;28;20458;-67
2021/06/23 02:40:34;;;;;;;12.45;6.63;;;17.30;99.90;;;;;;5032263;28;20190;-67
2021/06/23 02:43:00;;;;;;;15.80;7.43;;;17.30;99.90;;;;;;5031049;28;20034;-67
2021/06/23 02:45:29;;;;;;;9.70;6.65;;;17.30;99.90;;;;;;5031181;28;20030;-68
2021/06/23 02:47:55;;;;;;;10.50;6.40;;;17.20;99.90;;;;;;5032127;28;20037;-68
2021/06/23 02:50:23;;;;;;;12.68;7.90;;;17.10;99.90;;;;;;5030750;28;20044;-67
2021/06/23 02:52:49;;;;;;;10.65;7.25;;;17.10;99.90;;;;;;5031123;28;20551;-67
2021/06/23 02:55:21;;;;;;;9.32;7.13;;;17.20;99.90;;;;;;5031949;28;20033;-68
2021/06/23 02:57:50;;;;;;;9.75;7.32;;;17.10;99.90;;;;;;5030761;28;20064;-67
2021/06/23 03:00:17;;;;;;;13.57;6.93;;;17.20;99.90;;;;;;5030864;28;20032;-67
2021/06/23 03:02:42;;;;;;;12.45;7.00;;;17.30;99.90;;;;;;5014570;28;20087;-67
2021/06/23 03:05:10;;;;;;;12.27;6.38;;;17.30;99.90;;;;;;5031944;28;20053;-67
2021/06/23 03:07:35;;;;;;;10.20;7.03;;;17.40;99.90;;;;;;5031843;28;20394;-67
2021/06/23 03:10:09;;;;;;;10.05;6.40;;;17.40;99.90;;;;;;5032012;28;20034;-67
2021/06/23 03:12:34;;;;;;;11.88;7.15;;;17.40;99.90;;;;;;5030529;28;20041;-67
2021/06/23 03:15:01;;;;;;;12.13;6.43;;;17.30;99.90;;;;;;5032246;28;20026;-68
2021/06/23 03:17:27;;;;;;;10.55;7.03;;;17.30;99.90;;;;;;5031792;28;20068;-67
2021/06/23 03:19:53;;;;;;;11.27;7.32;;;17.40;99.90;;;;;;5030747;28;20034;-67
2021/06/23 03:22:19;;;;;;;12.05;6.88;;;17.40;99.90;;;;;;5031749;28;20083;-69
2021/06/23 03:24:45;;;;;;;11.82;7.57;;;17.30;99.90;;;;;;5031755;28;20037;-67
2021/06/23 03:27:11;;;;;;;10.20;6.78;;;17.30;99.90;;;;;;5031989;28;20433;-67
2021/06/23 03:29:37;;;;;;;11.00;6.75;;;17.30;99.90;;;;;;5031735;28;20464;-67
2021/06/23 03:32:10;;;;;;;12.82;7.30;;;17.30;99.90;;;;;;5031807;28;20057;-68
2021/06/23 03:34:38;;;;;;;11.80;7.18;;;17.30;99.90;;;;;;5001881;28;20037;-67
2021/06/23 03:37:05;;;;;;;13.32;7.32;;;17.30;99.90;;;;;;5016286;28;20479;-67
2021/06/23 03:39:33;;;;;;;11.55;7.00;;;17.30;99.90;;;;;;5031454;28;20034;-70
2021/06/23 03:41:59;;;;;;;10.32;7.22;;;17.20;99.90;;;;;;5013729;28;20037;-68
2021/06/23 03:44:25;;;;;;;8.52;6.85;;;17.20;99.90;;;;;;5030664;28;20034;-69
2021/06/23 03:46:52;;;;;;;14.32;7.90;;;17.20;99.90;;;;;;5030725;28;20041;-70
2021/06/23 03:49:18;;;;;;;11.10;6.57;;;17.30;99.90;;;;;;5031543;28;20037;-70
2021/06/23 03:51:44;;;;;;;10.82;6.97;;;17.20;99.90;;;;;;5014027;28;20040;-70
2021/06/23 03:54:10;;;;;;;16.85;7.43;;;17.20;99.90;;;;;;5031143;28;20363;-68
2021/06/23 03:56:36;;;;;;;11.73;6.72;;;17.20;99.90;;;;;;5031598;28;20034;-68
2021/06/23 03:59:01;;;;;;;14.70;7.32;;;17.10;99.90;;;;;;5031812;28;20034;-68
2021/06/23 04:01:27;;;;;;;12.75;7.47;;;17.10;99.90;;;;;;5030817;28;20479;-69
2021/06/23 04:03:53;;;;;;;12.18;7.05;;;17.00;99.90;;;;;;5015720;28;20490;-68
2021/06/23 04:06:19;;;;;;;18.75;8.23;;;17.10;99.90;;;;;;5034913;28;20061;-69
2021/06/23 04:08:44;;;;;;;11.38;7.22;;;17.20;99.90;;;;;;5035279;28;20041;-69
2021/06/23 04:11:10;;;;;;;11.77;7.43;;;17.20;99.90;;;;;;5035264;28;20034;-68
2021/06/23 04:13:36;;;;;;;12.55;7.65;;;17.10;99.90;;;;;;5034726;28;20045;-69
2021/06/23 04:16:02;;;;;;;11.73;7.20;;;17.00;99.90;;;;;;5034759;28;20367;-68
2021/06/23 04:18:27;;;;;;;15.43;6.75;;;17.00;99.90;;;;;;5033744;28;20029;-69
2021/06/23 04:20:54;;;;;;;13.05;7.22;;;17.00;99.90;;;;;;5034912;28;20428;-69
2021/06/23 04:23:20;;;;;;;12.30;7.35;;;17.00;99.90;;;;;;5034520;28;20026;-69
2021/06/23 04:25:45;;;;;;;14.23;7.60;;;17.00;99.90;;;;;;5033829;28;20052;-69
2021/06/23 04:28:11;;;;;;;11.70;7.32;;;17.00;99.90;;;;;;5034549;28;20394;-69
2021/06/23 04:30:37;;;;;;;12.15;7.45;;;17.00;99.90;;;;;;5016743;28;20112;-69
2021/06/23 04:33:03;;;;;;;14.43;7.95;;;17.00;99.90;;;;;;5016734;28;20037;-68
2021/06/23 04:35:29;;;;;;;14.93;7.43;;;17.00;99.90;;;;;;5016634;28;20386;-68
2021/06/23 04:37:55;;;;;;;12.43;7.88;;;17.00;99.90;;;;;;5034808;28;20030;-68
2021/06/23 04:40:20;;;;;;;12.73;7.57;;;17.00;99.90;;;;;;5033731;28;20033;-68
2021/06/23 04:42:46;;;;;;;10.00;7.30;;;17.10;99.90;;;;;;5034021;28;20030;-69
2021/06/23 04:45:15;;;;;;;15.82;7.53;;;17.20;99.90;;;;;;5033146;28;20189;-68
2021/06/23 04:47:41;;;;;;;13.45;8.40;;;17.30;99.90;;;;;;5033211;28;20528;-69
2021/06/23 04:50:09;;;;;;;12.73;7.78;;;17.20;99.90;;;;;;5015647;28;20112;-69
2021/06/23 04:52:36;;;;;;;13.82;7.15;;;17.10;99.90;;;;;;5015677;28;20508;-68
2021/06/23 04:55:04;;;;;;;14.57;7.90;;;17.10;99.90;;;;;;5033900;28;20033;-68
2021/06/23 04:57:30;;;;;;;15.27;7.50;;;17.10;99.90;;;;;;5016272;28;20111;-68
2021/06/23 04:59:56;;;;;;;15.07;8.45;;;17.00;99.90;;;;;;5033802;28;20475;-69
2021/06/23 05:02:22;;;;;;;13.02;8.48;;;16.90;99.90;;;;;;5015665;28;20038;-68
2021/06/23 05:04:48;;;;;;;17.63;9.52;;;16.90;99.90;;;;;;5033451;28;20049;-68
2021/06/23 05:07:14;;;;;;;22.10;8.93;;;16.90;99.90;;;;;;5033682;28;20041;-68
2021/06/23 05:09:40;;;;;;;13.07;8.48;;;16.70;99.90;;;;;;4999381;28;20474;-68
2021/06/23 05:12:08;;;;;;;16.52;9.20;;;16.60;99.90;;;;;;5033580;28;20033;-68
2021/06/23 05:14:34;;;;;;;13.73;7.95;;;16.60;99.90;;;;;;5015494;28;20065;-68
2021/06/23 05:17:01;;;;;;;16.95;8.93;;;16.70;99.90;;;;;;5033719;28;20080;-68
2021/06/23 05:19:28;;;;;;;12.68;8.50;;;16.80;99.90;;;;;;5033183;28;20479;-68
2021/06/23 05:21:54;;;;;;;13.38;7.93;;;16.80;99.90;;;;;;5031848;28;20391;-68
2021/06/23 05:24:19;;;;;;;11.85;7.60;;;16.90;99.90;;;;;;5031745;28;20131;-68
2021/06/23 05:26:45;;;;;;;16.20;9.73;;;16.80;99.90;;;;;;5033406;28;20043;-67
2021/06/23 05:29:11;;;;;;;17.13;8.88;;;16.80;99.90;;;;;;5033091;28;20144;-68
2021/06/23 05:31:37;;;;;;;16.77;9.38;;;16.80;99.90;;;;;;5031996;28;20029;-68
2021/06/23 05:34:03;;;;;;;17.13;9.52;;;16.70;99.90;;;;;;5033201;28;20083;-68
2021/06/23 05:36:29;;;;;;;17.92;8.52;;;16.80;99.90;;;;;;5031790;28;20026;-67
2021/06/23 05:38:55;;;;;;;15.95;8.68;;;16.70;99.90;;;;;;5032871;28;20034;-68
2021/06/23 05:41:22;;;;;;;16.67;9.63;;;16.70;99.90;;;;;;5031162;28;20470;-69
2021/06/23 05:43:48;;;;;;;19.38;10.05;;;16.70;99.90;;;;;;5031191;28;20316;-68
2021/06/23 05:46:13;;;;;;;14.68;8.68;;;16.70;99.90;;;;;;5032725;28;20383;-68
2021/06/23 05:48:39;;;;;;;21.02;11.20;;;16.70;99.90;;;;;;5015067;28;20067;-68
2021/06/23 05:51:06;;;;;;;16.10;9.32;;;16.80;99.90;;;;;;5032539;28;20474;-69
2021/06/23 05:53:32;;;;;;;16.13;9.60;;;16.90;99.90;;;;;;5031439;28;20490;-69
2021/06/23 05:55:58;;;;;;;18.10;9.05;;;16.80;99.90;;;;;;5032400;28;20045;-68
2021/06/23 05:58:25;;;;;;;17.73;9.35;;;16.60;99.90;;;;;;5032847;28;20482;-68
2021/06/23 06:00:53;;;;;;;16.90;9.35;;;16.60;99.90;;;;;;5031645;28;20040;-68
2021/06/23 06:03:19;;;;;;;20.60;10.70;;;16.70;99.90;;;;;;5014739;28;20057;-68
2021/06/23 06:05:46;;;;;;;17.50;10.55;;;16.50;99.90;;;;;;5014705;28;20040;-68
2021/06/23 06:08:13;;;;;;;18.42;10.20;;;16.50;99.90;;;;;;5032645;28;20036;-68
2021/06/23 06:10:38;;;;;;;16.55;9.40;;;16.50;99.90;;;;;;5031222;28;20040;-68
2021/06/23 06:13:05;;;;;;;22.42;9.88;;;16.60;99.90;;;;;;5031707;28;20029;-68
2021/06/23 06:15:33;;;;;;;17.15;8.80;;;16.70;99.90;;;;;;5032403;28;20037;-68
2021/06/23 06:18:04;;;;;;;19.15;10.10;;;16.80;99.90;;;;;;5032439;28;20034;-68
2021/06/23 06:20:32;;;;;;;14.77;9.90;;;17.00;99.90;;;;;;5032403;28;20450;-68
2021/06/23 06:22:58;;;;;;;13.82;8.75;;;17.20;99.90;;;;;;5014781;28;20403;-68
2021/06/23 06:25:26;;;;;;;16.75;9.68;;;17.40;99.90;;;;;;5031626;28;20041;-68
2021/06/23 06:27:52;;;;;;;15.65;10.15;;;17.40;99.90;;;;;;5032228;28;20041;-68
2021/06/23 06:30:19;;;;;;;15.30;9.80;;;17.50;99.90;;;;;;5031286;28;20034;-68
2021/06/23 06:32:45;;;;;;;14.63;9.02;;;17.50;99.90;;;;;;5014304;28;20588;-68
2021/06/23 06:35:11;;;;;;;17.25;9.38;;;17.50;99.90;;;;;;5032429;28;20037;-68
2021/06/23 06:37:37;;;;;;;18.60;9.30;;;17.50;99.90;;;;;;5014477;28;20037;-68
2021/06/23 06:40:03;;;;;;;17.55;9.52;;;17.60;99.90;;;;;;5014691;28;20078;-68
2021/06/23 06:42:29;;;;;;;14.38;9.57;;;17.70;99.90;;;;;;5014326;28;20061;-68
2021/06/23 06:44:55;;;;;;;16.00;10.45;;;17.60;99.90;;;;;;5032308;28;20057;-68
2021/06/23 06:47:21;;;;;;;17.70;10.50;;;17.20;99.90;;;;;;5030835;28;20129;-68
2021/06/23 06:49:46;;;;;;;17.55;10.13;;;17.20;99.90;;;;;;5031847;28;20033;-68
2021/06/23 06:52:12;;;;;;;15.23;9.88;;;17.30;99.90;;;;;;5032127;28;20075;-68
2021/06/23 06:54:38;;;;;;;17.65;9.05;;;17.40;99.90;;;;;;5032163;28;20045;-69
2021/06/23 06:57:04;;;;;;;19.65;10.18;;;17.50;99.90;;;;;;5014500;28;20033;-69
2021/06/23 06:59:30;;;;;;;15.52;9.75;;;17.50;99.90;;;;;;5031741;28;20032;-69
2021/06/23 07:01:56;;;;;;;19.77;9.82;;;17.50;99.90;;;;;;5014061;28;20387;-69
2021/06/23 07:04:22;;;;;;;18.90;10.93;;;17.60;99.90;;;;;;5031780;28;20483;-68
2021/06/23 07:06:48;;;;;;;16.35;9.77;;;17.70;99.90;;;;;;5031580;28;20038;-69
2021/06/23 07:09:15;;;;;;;18.20;9.25;;;17.90;99.90;;;;;;5031875;28;20112;-69
2021/06/23 07:11:42;;;;;;;14.55;9.40;;;18.00;99.90;;;;;;5014024;28;20034;-69
2021/06/23 07:14:08;;;;;;;15.18;9.18;;;18.10;99.90;;;;;;5014368;28;20037;-69
2021/06/23 07:16:34;;;;;;;15.38;9.13;;;18.30;99.90;;;;;;5031884;28;20159;-69
2021/06/23 07:19:00;;;;;;;18.60;11.10;;;18.50;99.90;;;;;;5031880;28;20466;-69
2021/06/23 07:21:26;;;;;;;19.55;9.80;;;18.50;99.90;;;;;;5032140;28;20029;-69
2021/06/23 07:23:54;;;;;;;16.35;9.00;;;18.50;99.90;;;;;;5031645;28;20136;-69
2021/06/23 07:26:20;;;;;;;14.55;9.38;;;18.60;99.90;;;;;;5031720;28;20033;-69
2021/06/23 07:28:55;;;;;;;16.80;9.50;;;18.60;99.90;;;;;;5014301;28;20041;-69
2021/06/23 07:36:54;;;;;;;12.52;8.68;;;18.60;99.90;;;;;;5017535;28;20501;-70
2021/06/23 07:39:21;;;;;;;15.02;8.65;;;18.50;99.90;;;;;;5017637;28;20037;-69
2021/06/23 07:41:50;;;;;;;15.98;8.95;;;18.60;99.90;;;;;;5017511;28;20478;-69
2021/06/23 07:44:20;;;;;;;14.27;8.50;;;18.50;99.90;;;;;;5017069;28;20040;-69
2021/06/23 07:46:57;;;;;;;14.70;9.27;;;18.60;99.90;;;;;;5035047;28;20038;-68
2021/06/23 07:49:25;;;;;;;18.52;8.80;;;18.70;99.90;;;;;;5019061;28;20041;-68
2021/06/23 08:10:51;;;;;;;13.80;8.45;;;19.20;99.90;;;;;;5012547;28;20033;-70
2021/06/23 08:13:18;;;;;;;13.32;8.52;;;19.40;99.90;;;;;;5012719;28;20104;-68
2021/06/23 08:15:47;;;;;;;11.95;8.25;;;19.50;99.90;;;;;;4993429;28;20034;-68
2021/06/23 08:18:15;;;;;;;12.57;8.40;;;19.50;99.90;;;;;;4993113;28;20081;-69
2021/06/23 08:20:42;;;;;;;14.02;9.07;;;19.70;99.90;;;;;;4992996;28;20088;-69
2021/06/23 08:23:08;;;;;;;11.55;8.07;;;19.70;99.90;;;;;;4992975;28;20061;-68
2021/06/23 08:25:34;;;;;;;13.43;8.60;;;20.20;99.90;;;;;;4992903;28;20084;-69
2021/06/23 08:28:00;;;;;;;14.18;8.13;;;20.50;99.90;;;;;;4992879;28;20043;-68
2021/06/23 08:30:26;;;;;;;9.73;7.40;;;20.10;99.90;;;;;;4993197;28;20200;-68
2021/06/23 08:32:55;;;;;;;11.45;7.65;;;20.00;99.90;;;;;;5000936;28;20456;-69
2021/06/23 08:35:21;;;;;;;10.75;7.88;;;20.20;99.90;;;;;;5014803;28;20030;-68
2021/06/23 08:37:47;;;;;;;11.27;7.43;;;19.90;99.90;;;;;;4996916;28;20044;-69
2021/06/23 08:40:14;;;;;;;10.32;7.70;;;19.80;99.90;;;;;;4997405;28;20053;-68
2021/06/23 08:42:41;;;;;;;9.95;7.10;;;20.50;99.90;;;;;;5014482;28;20034;-69
2021/06/23 08:45:09;;;;;;;11.60;7.50;;;20.80;99.90;;;;;;5014482;28;20104;-69
2021/06/23 08:47:44;;;;;;;10.30;7.30;;;21.00;99.90;;;;;;4980523;28;20042;-71
2021/06/23 08:50:17;;;;;;;12.60;7.70;;;21.00;99.90;;;;;;5012546;28;20037;-70
2021/06/23 08:52:43;;;;;;;10.77;8.07;;;20.80;99.90;;;;;;5013011;28;20506;-70
2021/06/23 08:55:10;;;;;;;10.10;7.43;;;20.90;99.90;;;;;;5013321;28;20042;-70
2021/06/23 08:57:38;;;;;;;11.05;6.80;;;21.40;99.90;;;;;;5013922;28;20033;-69
2021/06/23 09:00:07;;;;;;;9.52;6.95;;;21.50;99.90;;;;;;5013250;28;20148;-70
2021/06/23 09:02:34;;;;;;;11.40;7.22;;;21.50;99.90;;;;;;5012887;28;20041;-70
2021/06/23 09:05:07;;;;;;;8.50;6.70;;;21.40;99.90;;;;;;5012792;28;20056;-70
2021/06/23 09:07:48;;;;;;;11.00;8.02;;;21.50;99.90;;;;;;5012782;28;20034;-70
2021/06/23 09:10:23;;;;;;;8.50;6.55;;;21.50;99.90;;;;;;5013445;28;20482;-70
2021/06/23 09:13:07;;;;;;;8.15;6.10;;;21.50;99.90;;;;;;5013631;28;20375;-70
2021/06/23 09:15:55;;;;;;;10.82;6.13;;;21.60;99.90;;;;;;5015289;28;20499;-69
2021/06/23 09:18:35;;;;;;;10.23;7.00;;;22.10;99.90;;;;;;5033478;28;20124;-69
2021/06/23 09:21:15;;;;;;;9.60;6.53;;;21.70;99.90;;;;;;5033584;28;20033;-69
2021/06/23 09:23:42;;;;;;;9.13;6.57;;;21.60;99.90;;;;;;5015769;28;20501;-69
2021/06/23 09:26:15;;;;;;;8.20;6.60;;;21.90;99.90;;;;;;5033333;28;20041;-69
2021/06/23 09:28:43;;;;;;;9.07;6.47;;;22.00;99.90;;;;;;5033177;28;20033;-69
2021/06/23 09:31:09;;;;;;;8.65;6.55;;;22.10;99.90;;;;;;5015708;28;20474;-70
2021/06/23 09:33:37;;;;;;;7.50;5.40;;;22.30;99.90;;;;;;5031817;28;20033;-68
2021/06/23 09:36:09;;;;;;;8.00;6.38;;;22.40;99.90;;;;;;5033123;28;20034;-72
2021/06/23 09:38:46;;;;;;;7.50;5.55;;;22.30;99.90;;;;;;5033152;28;20033;-70
2021/06/23 09:41:33;;;;;;;8.57;6.28;;;22.60;99.90;;;;;;5015860;28;20029;-69
2021/06/23 09:44:07;;;;;;;8.18;6.25;;;22.70;99.90;;;;;;5032873;28;20550;-69
2021/06/23 09:46:40;;;;;;;8.35;5.82;;;22.10;99.90;;;;;;5033065;28;20047;-69
2021/06/23 09:49:06;;;;;;;8.25;5.43;;;22.50;99.90;;;;;;5032850;28;20041;-69
2021/06/23 09:51:49;;;;;;;7.82;5.03;;;22.50;99.90;;;;;;5032939;28;20045;-69
2021/06/23 09:54:20;;;;;;;7.20;5.53;;;22.70;99.90;;;;;;5015075;28;20048;-69
2021/06/23 09:56:47;;;;;;;7.50;5.30;;;22.90;99.90;;;;;;5032999;28;20505;-69
2021/06/23 09:59:37;;;;;;;6.63;4.80;;;23.20;99.90;;;;;;5033122;28;20551;-69
2021/06/23 10:02:29;;;;;;;6.88;4.75;;;23.00;99.90;;;;;;5030780;28;20033;-69
2021/06/23 10:04:57;;;;;;;8.30;4.53;;;23.00;99.90;;;;;;5031066;28;20075;-69
2021/06/23 10:07:46;;;;;;;8.98;4.93;;;22.90;99.90;;;;;;5032917;28;20034;-69
2021/06/23 10:10:20;;;;;;;11.45;6.15;;;23.10;99.90;;;;;;5032481;28;20037;-69
2021/06/23 10:12:48;;;;;;;9.70;6.53;;;23.40;99.90;;;;;;5032732;28;20029;-70
2021/06/23 10:15:15;;;;;;;6.97;4.90;;;23.10;99.90;;;;;;5031548;28;20040;-70
2021/06/23 10:17:43;;;;;;;7.53;5.35;;;23.60;99.90;;;;;;5030848;28;20029;-70
2021/06/23 10:20:10;;;;;;;5.78;3.97;;;23.80;99.90;;;;;;5032168;28;20419;-70
2021/06/23 10:22:38;;;;;;;5.57;4.30;;;23.70;99.90;;;;;;5031674;28;20032;-70
2021/06/23 10:25:09;;;;;;;4.88;3.70;;;23.50;99.90;;;;;;5014737;28;20061;-71
2021/06/23 10:27:39;;;;;;;6.72;4.60;;;23.80;99.90;;;;;;5031361;28;20083;-70
2021/06/23 10:30:08;;;;;;;5.88;3.75;;;23.70;99.90;;;;;;5015384;28;20437;-70
2021/06/23 10:32:35;;;;;;;7.22;4.10;;;23.70;99.90;;;;;;5032328;28;20445;-71
2021/06/23 10:35:01;;;;;;;7.13;4.03;;;23.60;99.90;;;;;;5014565;28;20030;-70
2021/06/23 10:37:28;;;;;;;5.40;3.80;;;23.80;99.90;;;;;;5032234;28;20418;-71
2021/06/23 10:39:55;;;;;;;4.97;3.75;;;24.10;99.90;;;;;;5014646;28;20083;-70
2021/06/23 10:42:24;;;;;;;5.85;3.78;;;23.90;99.90;;;;;;5032470;28;20398;-70
2021/06/23 10:44:56;;;;;;;4.40;3.65;;;24.40;99.90;;;;;;5014544;28;20463;-70
2021/06/23 10:47:47;;;;;;;5.25;3.47;;;24.80;99.90;;;;;;5030992;28;20041;-70
2021/06/23 10:50:30;;;;;;;7.60;3.72;;;25.10;99.90;;;;;;5032060;28;20441;-69
2021/06/23 10:52:56;;;;;;;8.48;3.78;;;25.30;99.90;;;;;;5031977;28;20092;-70
2021/06/23 10:55:22;;;;;;;4.55;3.40;;;25.40;99.90;;;;;;5030687;28;20029;-70
2021/06/23 10:57:54;;;;;;;5.03;3.08;;;25.60;99.90;;;;;;5012615;28;20096;-71
2021/06/23 11:00:26;;;;;;;4.05;2.75;;;25.30;99.90;;;;;;5011241;28;20022;-71
2021/06/23 11:03:05;;;;;;;4.80;3.17;;;24.90;99.90;;;;;;5011735;28;20434;-70
2021/06/23 11:05:37;;;;;;;5.18;2.50;;;24.90;99.90;;;;;;5012190;28;20038;-71
2021/06/23 11:08:34;;;;;;;3.72;2.63;;;25.40;99.90;;;;;;5012064;28;20049;-70
2021/06/23 11:11:05;;;;;;;4.13;3.13;;;25.40;99.90;;;;;;5010772;28;20061;-71
2021/06/23 11:13:35;;;;;;;6.95;3.88;;;24.70;99.90;;;;;;5014382;28;20022;-70
2021/06/23 11:16:02;;;;;;;4.68;3.42;;;24.90;99.90;;;;;;5021021;28;20057;-71
2021/06/23 11:18:39;;;;;;;5.72;3.28;;;25.10;99.90;;;;;;5035884;28;20128;-71
2021/06/23 11:21:20;;;;;;;6.72;3.60;;;25.30;99.90;;;;;;5035504;28;20644;-70
2021/06/23 11:24:01;;;;;;;8.27;3.78;;;25.40;99.90;;;;;;5018284;28;20040;-72
2021/06/23 11:26:27;;;;;;;4.05;2.67;;;25.30;99.90;;;;;;5035569;28;20033;-72
2021/06/23 11:29:10;;;;;;;3.85;2.88;;;25.10;99.90;;;;;;5035214;28;20091;-72
2021/06/23 11:32:06;;;;;;;4.45;3.10;;;24.70;99.90;;;;;;5019612;28;20025;-70
2021/06/23 11:34:38;;;;;;;6.35;3.05;;;24.90;99.90;;;;;;5032526;28;20112;-71
2021/06/23 11:37:17;;;;;;;3.90;3.00;;;25.00;99.90;;;;;;5017623;28;20044;-71
2021/06/23 11:39:43;;;;;;;4.00;2.88;;;24.80;99.90;;;;;;5017848;28;20575;-70
2021/06/23 11:42:11;;;;;;;12.20;4.93;;;24.70;99.90;;;;;;5017680;28;20017;-70
2021/06/23 11:44:39;;;;;;;7.22;3.60;;;25.50;99.90;;;;;;5035301;28;20041;-71
2021/06/23 11:47:06;;;;;;;4.47;3.05;;;25.70;99.90;;;;;;5017596;28;20416;-71
2021/06/23 11:49:34;;;;;;;4.30;3.38;;;26.00;99.90;;;;;;5035104;28;20852;-70
2021/06/23 11:52:06;;;;;;;6.20;3.13;;;26.50;99.90;;;;;;5034151;28;20037;-71
2021/06/23 11:54:32;;;;;;;4.18;2.60;;;26.80;99.90;;;;;;5016883;28;20029;-71
2021/06/23 11:56:58;;;;;;;5.05;3.00;;;26.70;99.90;;;;;;5035251;28;20045;-70
2021/06/23 11:59:24;;;;;;;9.15;2.63;;;26.70;99.90;;;;;;5017285;28;20034;-71
2021/06/23 12:01:50;;;;;;;3.15;2.30;;;26.60;99.90;;;;;;5035104;28;20032;-70
2021/06/23 12:04:16;;;;;;;3.47;2.60;;;26.30;99.90;;;;;;5034811;28;20125;-70
2021/06/23 12:06:42;;;;;;;4.95;2.40;;;25.90;99.90;;;;;;5034818;28;20474;-70
2021/06/23 12:09:08;;;;;;;9.07;2.63;;;25.50;99.90;;;;;;5034624;28;20056;-71
2021/06/23 12:11:34;;;;;;;3.63;2.30;;;25.60;99.90;;;;;;5034876;28;20470;-70
2021/06/23 12:14:00;;;;;;;3.60;2.40;;;25.80;99.90;;;;;;5034846;28;20038;-70
2021/06/23 12:16:25;;;;;;;3.15;2.22;;;26.20;99.90;;;;;;5034531;28;20034;-70
2021/06/23 12:18:51;;;;;;;2.85;2.20;;;27.10;99.90;;;;;;5034440;28;20059;-71
2021/06/23 12:21:17;;;;;;;4.40;2.70;;;27.70;99.90;;;;;;5034656;28;20057;-71
2021/06/23 12:23:43;;;;;;;7.88;2.95;;;28.20;99.40;;;;;;5033483;28;20069;-71
2021/06/23 12:26:09;;;;;;;4.13;2.63;;;27.90;99.10;;;;;;5034589;28;20646;-70
2021/06/23 12:28:34;;;;;;;4.00;2.72;;;27.70;98.90;;;;;;5033265;28;20033;-69
2021/06/23 12:31:00;;;;;;;6.15;3.35;;;27.80;99.10;;;;;;5034781;28;20037;-70
2021/06/23 12:33:26;;;;;;;7.85;3.40;;;26.80;99.70;;;;;;5034450;28;20176;-70
2021/06/23 12:35:52;;;;;;;5.88;2.85;;;26.70;99.90;;;;;;5033994;28;20378;-71
2021/06/23 12:38:19;;;;;;;3.60;2.40;;;27.10;99.50;;;;;;5034496;28;20061;-70
2021/06/23 12:40:46;;;;;;;3.25;2.40;;;27.70;98.60;;;;;;5032969;28;20037;-71
2021/06/23 12:43:14;;;;;;;3.47;2.50;;;27.60;98.70;;;;;;5034340;28;20033;-70
2021/06/23 12:45:47;;;;;;;3.08;2.30;;;27.90;98.80;;;;;;5033045;28;20462;-70
2021/06/23 12:48:13;;;;;;;5.03;2.20;;;28.30;97.70;;;;;;5017146;28;20087;-69
2021/06/23 12:50:40;;;;;;;3.55;2.33;;;28.50;98.00;;;;;;5016518;28;20025;-70
2021/06/23 12:53:06;;;;;;;5.00;2.78;;;28.70;97.30;;;;;;5033762;28;20494;-70
2021/06/23 12:55:32;;;;;;;2.97;2.13;;;29.00;96.60;;;;;;5033800;28;20068;-70
2021/06/23 12:57:58;;;;;;;4.28;2.25;;;29.30;95.70;;;;;;5033934;28;20033;-71
2021/06/23 13:00:24;;;;;;;3.20;2.13;;;29.20;95.30;;;;;;5034112;28;20033;-70
2021/06/23 13:02:51;;;;;;;3.75;1.92;;;29.10;96.50;;;;;;5015831;28;20478;-71
2021/06/23 13:05:18;;;;;;;3.63;1.88;;;29.30;95.00;;;;;;5033867;28;20036;-70
2021/06/23 13:07:45;;;;;;;2.75;1.90;;;28.80;95.10;;;;;;5016084;28;20033;-70
2021/06/23 13:10:17;;;;;;;6.60;2.10;;;28.90;94.70;;;;;;5015961;28;20108;-70
2021/06/23 13:12:44;;;;;;;4.30;2.80;;;28.90;94.70;;;;;;5016626;28;20021;-71